createdAt,value
2018-02-27T00:00:43.249Z,99.99
2018-02-27T00:01:43.876Z,99.99
2018-02-27T00:02:44.432Z,99.99
2018-02-27T00:03:45.019Z,99.99
2018-02-27T00:04:45.625Z,99.99
2018-02-27T00:05:46.450Z,99.99
2018-02-27T00:06:47.090Z,99.99
2018-02-27T00:07:47.680Z,99.99
2018-02-27T00:08:48.280Z,99.99
2018-02-27T00:09:48.864Z,99.99
2018-02-27T00:10:49.466Z,99.99
2018-02-27T00:11:50.049Z,99.99
2018-02-27T00:12:50.634Z,99.99
2018-02-27T00:13:51.219Z,99.99
2018-02-27T00:14:51.802Z,99.99
2018-02-27T00:15:52.440Z,99.99
2018-02-27T00:16:53.037Z,99.99
2018-02-27T00:17:53.624Z,99.99
2018-02-27T00:18:54.216Z,99.99
2018-02-27T00:19:54.819Z,99.99
2018-02-27T00:20:55.417Z,99.99
2018-02-27T00:21:56.002Z,99.99
2018-02-27T00:22:56.594Z,99.99
2018-02-27T00:23:57.195Z,99.99
2018-02-27T00:24:57.788Z,99.99
2018-02-27T00:25:58.371Z,99.99
2018-02-27T00:26:58.970Z,99.99
2018-02-27T00:27:59.576Z,99.99
2018-02-27T00:29:00.167Z,99.99
2018-02-27T00:30:00.766Z,99.99
2018-02-27T00:31:01.350Z,99.99
2018-02-27T00:32:01.936Z,99.99
2018-02-27T00:33:02.532Z,99.99
2018-02-27T00:34:03.123Z,99.99
2018-02-27T00:35:03.705Z,99.99
2018-02-27T00:36:04.303Z,99.99
2018-02-27T00:37:04.901Z,99.99
2018-02-27T00:38:05.493Z,99.99
2018-02-27T00:39:06.087Z,99.99
2018-02-27T00:40:06.675Z,99.99
2018-02-27T00:41:07.255Z,99.99
2018-02-27T00:42:07.838Z,99.99
2018-02-27T00:43:08.449Z,99.99
2018-02-27T00:44:09.014Z,99.99
2018-02-27T00:45:09.609Z,99.99
2018-02-27T00:46:10.190Z,99.99
2018-02-27T00:47:10.774Z,99.99
2018-02-27T00:48:11.358Z,99.99
2018-02-27T00:49:11.951Z,99.99
2018-02-27T00:50:12.608Z,99.99
2018-02-27T00:51:13.137Z,99.99
2018-02-27T00:52:13.730Z,99.99
2018-02-27T00:53:14.323Z,99.99
2018-02-27T00:54:14.924Z,99.99
2018-02-27T00:55:15.512Z,99.99
2018-02-27T00:56:16.105Z,99.99
2018-02-27T00:57:16.689Z,99.99
2018-02-27T00:58:17.281Z,99.99
2018-02-27T00:59:18.101Z,99.99
2018-02-27T01:01:02.901Z,99.99
2018-02-27T01:02:03.519Z,99.99
2018-02-27T01:03:04.140Z,99.99
2018-02-27T01:04:04.725Z,99.99
2018-02-27T01:05:05.321Z,99.99
2018-02-27T01:06:05.929Z,99.99
2018-02-27T01:07:06.526Z,99.99
2018-02-27T01:08:07.122Z,99.99
2018-02-27T01:09:07.709Z,99.99
2018-02-27T01:10:08.302Z,99.99
2018-02-27T01:11:08.893Z,99.99
2018-02-27T01:12:09.488Z,99.99
2018-02-27T01:13:10.084Z,99.99
2018-02-27T01:14:10.689Z,99.99
2018-02-27T01:15:11.284Z,99.99
2018-02-27T01:16:11.875Z,99.99
2018-02-27T01:17:12.471Z,99.99
2018-02-27T01:18:13.061Z,99.99
2018-02-27T01:19:13.664Z,99.99
2018-02-27T01:20:14.259Z,99.99
2018-02-27T01:21:14.845Z,99.99
2018-02-27T01:22:15.436Z,99.99
2018-02-27T01:23:16.035Z,99.99
2018-02-27T01:24:16.632Z,99.99
2018-02-27T01:25:17.215Z,99.99
2018-02-27T01:26:17.816Z,99.99
2018-02-27T01:27:18.397Z,99.99
2018-02-27T01:28:18.983Z,99.99
2018-02-27T01:29:19.573Z,99.99
2018-02-27T01:30:20.163Z,99.99
2018-02-27T01:31:20.747Z,99.99
2018-02-27T01:32:21.338Z,99.99
2018-02-27T01:33:21.945Z,99.99
2018-02-27T01:34:22.549Z,99.99
2018-02-27T01:35:23.150Z,99.99
2018-02-27T01:36:23.751Z,99.99
2018-02-27T01:37:24.351Z,99.99
2018-02-27T01:38:24.935Z,99.99
2018-02-27T01:39:25.564Z,99.99
2018-02-27T01:40:26.120Z,99.99
2018-02-27T01:41:26.718Z,99.99
2018-02-27T01:42:27.311Z,99.99
2018-02-27T01:43:27.895Z,99.99
2018-02-27T01:44:28.479Z,99.99
2018-02-27T01:45:29.071Z,99.99
2018-02-27T01:46:29.671Z,99.99
2018-02-27T01:47:30.270Z,99.99
2018-02-27T01:48:30.863Z,99.99
2018-02-27T01:49:31.461Z,99.99
2018-02-27T01:50:32.051Z,99.99
2018-02-27T01:51:32.636Z,99.99
2018-02-27T01:52:33.236Z,99.99
2018-02-27T01:53:33.843Z,99.99
2018-02-27T01:54:34.448Z,99.99
2018-02-27T01:55:35.048Z,99.99
2018-02-27T01:56:35.631Z,99.99
2018-02-27T01:57:36.220Z,99.99
2018-02-27T01:58:36.805Z,99.99
2018-02-27T01:59:37.394Z,99.99
2018-02-27T02:00:37.998Z,99.99
2018-02-27T02:01:38.579Z,99.99
2018-02-27T02:02:39.170Z,99.99
2018-02-27T02:03:39.762Z,99.99
2018-02-27T02:04:40.343Z,99.99
2018-02-27T02:05:40.928Z,99.99
2018-02-27T02:06:41.528Z,99.99
2018-02-27T02:07:42.106Z,99.99
2018-02-27T02:08:42.687Z,99.99
2018-02-27T02:09:43.279Z,99.99
2018-02-27T02:10:43.864Z,99.99
2018-02-27T02:11:44.457Z,99.99
2018-02-27T02:12:45.058Z,99.99
2018-02-27T02:13:45.656Z,99.99
2018-02-27T02:14:46.251Z,99.99
2018-02-27T02:15:46.838Z,99.99
2018-02-27T02:16:47.429Z,99.99
2018-02-27T02:17:48.012Z,99.99
2018-02-27T02:18:48.606Z,99.99
2018-02-27T02:19:49.189Z,99.99
2018-02-27T02:20:49.781Z,99.99
2018-02-27T02:21:50.379Z,99.99
2018-02-27T02:22:50.965Z,99.99
2018-02-27T02:23:51.554Z,99.99
2018-02-27T02:24:52.140Z,99.99
2018-02-27T02:25:52.731Z,99.99
2018-02-27T02:26:53.326Z,99.99
2018-02-27T02:27:53.932Z,99.99
2018-02-27T02:28:54.514Z,99.99
2018-02-27T02:29:55.099Z,99.99
2018-02-27T02:30:55.697Z,99.99
2018-02-27T02:31:56.282Z,99.99
2018-02-27T02:32:56.875Z,99.99
2018-02-27T02:33:57.467Z,99.99
2018-02-27T02:34:58.052Z,99.99
2018-02-27T02:35:58.645Z,99.99
2018-02-27T02:36:59.237Z,99.99
2018-02-27T02:37:59.837Z,99.99
2018-02-27T02:39:00.422Z,99.99
2018-02-27T02:40:01.018Z,99.99
2018-02-27T02:41:01.610Z,99.99
2018-02-27T02:42:02.214Z,99.99
2018-02-27T02:43:02.803Z,99.99
2018-02-27T02:44:03.395Z,99.99
2018-02-27T02:45:03.994Z,99.99
2018-02-27T02:46:04.574Z,99.99
2018-02-27T02:47:05.168Z,99.99
2018-02-27T02:48:05.759Z,99.99
2018-02-27T02:49:06.347Z,99.99
2018-02-27T02:50:06.945Z,99.99
2018-02-27T02:51:07.537Z,99.99
2018-02-27T02:52:08.123Z,99.99
2018-02-27T02:53:08.720Z,99.99
2018-02-27T02:54:09.305Z,99.99
2018-02-27T02:55:09.894Z,99.99
2018-02-27T02:56:10.493Z,99.99
2018-02-27T02:57:11.084Z,99.99
2018-02-27T02:58:11.675Z,99.99
2018-02-27T02:59:12.259Z,99.99
2018-02-27T03:00:13.840Z,99.99
2018-02-27T03:01:14.443Z,99.99
2018-02-27T03:02:15.041Z,99.99
2018-02-27T03:03:15.641Z,99.99
2018-02-27T03:04:16.224Z,99.99
2018-02-27T03:05:16.808Z,99.99
2018-02-27T03:06:17.402Z,99.99
2018-02-27T03:07:17.998Z,99.99
2018-02-27T03:08:18.592Z,99.99
2018-02-27T03:09:19.172Z,99.99
2018-02-27T03:10:19.770Z,99.99
2018-02-27T03:11:20.355Z,99.99
2018-02-27T03:12:20.945Z,99.99
2018-02-27T03:13:21.538Z,99.99
2018-02-27T03:14:22.128Z,99.99
2018-02-27T03:15:22.717Z,99.99
2018-02-27T03:16:23.309Z,99.99
2018-02-27T03:17:23.912Z,99.99
2018-02-27T03:18:24.502Z,99.99
2018-02-27T03:19:25.096Z,99.99
2018-02-27T03:20:25.701Z,99.99
2018-02-27T03:21:26.284Z,99.99
2018-02-27T03:22:26.865Z,99.99
2018-02-27T03:23:27.451Z,99.99
2018-02-27T03:24:28.042Z,99.99
2018-02-27T03:25:28.633Z,99.99
2018-02-27T03:26:29.216Z,99.99
2018-02-27T03:27:29.807Z,99.99
2018-02-27T03:28:30.398Z,99.99
2018-02-27T03:29:30.998Z,99.99
2018-02-27T03:30:31.583Z,99.99
2018-02-27T03:31:32.185Z,99.99
2018-02-27T03:32:32.789Z,99.99
2018-02-27T03:33:33.378Z,99.99
2018-02-27T03:34:33.978Z,99.99
2018-02-27T03:35:34.568Z,99.99
2018-02-27T03:36:35.175Z,99.99
2018-02-27T03:37:35.757Z,99.99
2018-02-27T03:38:36.354Z,99.99
2018-02-27T03:39:36.948Z,99.99
2018-02-27T03:40:37.538Z,99.99
2018-02-27T03:41:38.137Z,99.99
2018-02-27T03:42:38.723Z,99.99
2018-02-27T03:43:39.318Z,99.99
2018-02-27T03:44:39.913Z,99.99
2018-02-27T03:45:40.496Z,99.99
2018-02-27T03:46:41.085Z,99.99
2018-02-27T03:47:41.685Z,99.99
2018-02-27T03:48:42.275Z,99.99
2018-02-27T03:49:42.871Z,99.99
2018-02-27T03:50:43.470Z,99.99
2018-02-27T03:51:44.056Z,99.99
2018-02-27T03:52:44.657Z,99.99
2018-02-27T03:53:45.237Z,99.99
2018-02-27T03:54:45.820Z,99.99
2018-02-27T03:55:46.403Z,99.99
2018-02-27T03:56:46.999Z,99.99
2018-02-27T03:57:47.598Z,99.99
2018-02-27T03:58:48.198Z,99.99
2018-02-27T03:59:48.788Z,99.99
2018-02-27T04:00:49.390Z,99.99
2018-02-27T04:01:49.988Z,99.99
2018-02-27T04:02:50.583Z,99.99
2018-02-27T04:03:51.183Z,99.99
2018-02-27T04:04:51.766Z,99.99
2018-02-27T04:05:52.349Z,99.99
2018-02-27T04:06:52.938Z,99.99
2018-02-27T04:07:53.540Z,99.99
2018-02-27T04:08:54.127Z,99.99
2018-02-27T04:09:54.725Z,99.99
2018-02-27T04:10:55.323Z,99.99
2018-02-27T04:11:55.905Z,99.99
2018-02-27T04:12:56.497Z,99.99
2018-02-27T04:13:57.089Z,99.99
2018-02-27T04:14:57.672Z,99.99
2018-02-27T04:15:58.261Z,99.99
2018-02-27T04:16:58.885Z,99.99
2018-02-27T04:17:59.473Z,99.99
2018-02-27T04:19:00.072Z,99.99
2018-02-27T04:20:00.671Z,99.99
2018-02-27T04:21:01.270Z,99.99
2018-02-27T04:22:01.860Z,99.99
2018-02-27T04:23:02.445Z,99.99
2018-02-27T04:24:03.032Z,99.99
2018-02-27T04:25:03.622Z,99.99
2018-02-27T04:26:04.221Z,99.99
2018-02-27T04:27:04.810Z,99.99
2018-02-27T04:28:05.395Z,99.99
2018-02-27T04:29:05.994Z,99.99
2018-02-27T04:30:06.592Z,99.99
2018-02-27T04:31:07.175Z,99.99
2018-02-27T04:32:07.773Z,99.99
2018-02-27T04:33:08.378Z,99.99
2018-02-27T04:34:08.968Z,99.99
2018-02-27T04:35:09.576Z,99.99
2018-02-27T04:36:10.176Z,99.99
2018-02-27T04:37:10.767Z,99.99
2018-02-27T04:38:11.372Z,99.99
2018-02-27T04:39:12.005Z,99.99
2018-02-27T04:40:12.561Z,99.99
2018-02-27T04:41:13.152Z,99.99
2018-02-27T04:42:13.735Z,99.99
2018-02-27T04:43:14.325Z,99.99
2018-02-27T04:44:14.935Z,99.99
2018-02-27T04:45:15.515Z,99.99
2018-02-27T04:46:16.108Z,99.99
2018-02-27T04:47:16.705Z,99.99
2018-02-27T04:48:17.290Z,99.99
2018-02-27T04:49:17.883Z,99.99
2018-02-27T04:50:18.462Z,99.99
2018-02-27T04:51:19.048Z,99.99
2018-02-27T04:52:19.647Z,99.99
2018-02-27T04:53:20.249Z,99.99
2018-02-27T04:54:20.846Z,99.99
2018-02-27T04:55:21.448Z,99.99
2018-02-27T04:56:22.111Z,99.99
2018-02-27T04:57:22.650Z,99.99
2018-02-27T04:58:23.246Z,99.99
2018-02-27T04:59:23.853Z,99.99
2018-02-27T05:00:24.463Z,99.99
2018-02-27T05:01:25.077Z,99.99
2018-02-27T05:02:25.659Z,99.99
2018-02-27T05:03:26.253Z,99.99
2018-02-27T05:04:26.839Z,99.99
2018-02-27T05:05:27.439Z,99.99
2018-02-27T05:06:28.030Z,99.99
2018-02-27T05:07:28.611Z,99.99
2018-02-27T05:08:29.203Z,99.99
2018-02-27T05:09:29.794Z,99.99
2018-02-27T05:10:30.385Z,99.99
2018-02-27T05:11:30.977Z,99.99
2018-02-27T05:12:31.558Z,99.99
2018-02-27T05:13:32.156Z,99.99
2018-02-27T05:14:32.751Z,99.99
2018-02-27T05:15:33.352Z,99.99
2018-02-27T05:16:33.993Z,99.99
2018-02-27T05:17:34.577Z,99.99
2018-02-27T05:18:35.172Z,99.99
2018-02-27T05:19:35.773Z,99.99
2018-02-27T05:20:36.354Z,99.99
2018-02-27T05:21:36.947Z,99.99
2018-02-27T05:22:37.539Z,99.99
2018-02-27T05:23:38.128Z,99.99
2018-02-27T05:24:38.722Z,99.99
2018-02-27T05:25:39.304Z,99.99
2018-02-27T05:26:39.900Z,99.99
2018-02-27T05:27:40.498Z,99.99
2018-02-27T05:28:41.095Z,99.99
2018-02-27T05:29:41.681Z,99.99
2018-02-27T05:30:42.272Z,99.99
2018-02-27T05:31:42.861Z,99.99
2018-02-27T05:32:43.466Z,99.99
2018-02-27T05:33:44.070Z,99.99
2018-02-27T05:34:44.653Z,99.99
2018-02-27T05:35:45.253Z,99.99
2018-02-27T05:36:45.850Z,99.99
2018-02-27T05:37:46.444Z,99.99
2018-02-27T05:38:47.026Z,99.99
2018-02-27T05:39:47.629Z,99.99
2018-02-27T05:40:48.225Z,99.99
2018-02-27T05:41:48.864Z,99.99
2018-02-27T05:42:49.437Z,99.99
2018-02-27T05:43:50.035Z,99.99
2018-02-27T05:44:50.618Z,99.99
2018-02-27T05:45:51.209Z,99.99
2018-02-27T05:46:51.800Z,99.99
2018-02-27T05:47:52.387Z,99.99
2018-02-27T05:48:52.987Z,99.99
2018-02-27T05:49:53.590Z,99.99
2018-02-27T05:50:54.194Z,99.99
2018-02-27T05:51:54.776Z,99.99
2018-02-27T05:52:55.367Z,99.99
2018-02-27T05:53:55.969Z,99.99
2018-02-27T05:54:56.566Z,99.99
2018-02-27T05:55:57.168Z,99.99
2018-02-27T05:56:57.768Z,99.99
2018-02-27T05:57:58.352Z,99.99
2018-02-27T05:58:58.937Z,99.99
2018-02-27T05:59:59.528Z,99.99
2018-02-27T06:01:00.128Z,99.99
2018-02-27T06:02:00.734Z,99.99
2018-02-27T06:03:01.342Z,99.99
2018-02-27T06:04:01.926Z,99.99
2018-02-27T06:05:02.518Z,99.99
2018-02-27T06:06:03.100Z,99.99
2018-02-27T06:07:03.685Z,99.99
2018-02-27T06:08:04.278Z,99.99
2018-02-27T06:09:04.883Z,99.99
2018-02-27T06:10:05.485Z,99.99
2018-02-27T06:11:06.072Z,99.99
2018-02-27T06:12:06.661Z,99.99
2018-02-27T06:13:07.285Z,99.99
2018-02-27T06:14:07.852Z,99.99
2018-02-27T06:15:08.454Z,99.99
2018-02-27T06:16:09.052Z,99.99
2018-02-27T06:17:09.638Z,99.99
2018-02-27T06:18:10.228Z,99.99
2018-02-27T06:19:10.827Z,99.99
2018-02-27T06:20:11.412Z,99.99
2018-02-27T06:21:12.027Z,99.99
2018-02-27T06:22:12.624Z,99.99
2018-02-27T06:23:13.216Z,99.99
2018-02-27T06:24:13.803Z,99.99
2018-02-27T06:25:14.403Z,99.99
2018-02-27T06:26:15.015Z,99.99
2018-02-27T06:27:15.615Z,99.99
2018-02-27T06:28:16.214Z,99.99
2018-02-27T06:29:16.800Z,99.99
2018-02-27T06:30:17.403Z,99.99
2018-02-27T06:31:17.991Z,99.99
2018-02-27T06:32:18.584Z,99.99
2018-02-27T06:33:19.166Z,99.99
2018-02-27T06:34:19.759Z,99.99
2018-02-27T06:35:20.352Z,99.99
2018-02-27T06:36:20.939Z,99.99
2018-02-27T06:37:21.581Z,99.99
2018-02-27T06:38:22.120Z,99.99
2018-02-27T06:39:22.719Z,99.99
2018-02-27T06:40:23.315Z,99.99
2018-02-27T06:41:23.912Z,99.99
2018-02-27T06:42:24.509Z,99.99
2018-02-27T06:43:25.108Z,99.99
2018-02-27T06:44:25.710Z,99.99
2018-02-27T06:45:26.309Z,99.99
2018-02-27T06:46:26.912Z,99.99
2018-02-27T06:47:27.502Z,99.99
2018-02-27T06:48:28.099Z,99.99
2018-02-27T06:49:28.699Z,99.99
2018-02-27T06:50:29.295Z,99.99
2018-02-27T06:51:29.884Z,99.99
2018-02-27T06:52:30.476Z,99.99
2018-02-27T06:53:31.076Z,99.99
2018-02-27T06:54:31.677Z,99.99
2018-02-27T06:55:32.271Z,99.99
2018-02-27T06:56:32.860Z,99.99
2018-02-27T06:57:33.466Z,99.99
2018-02-27T06:58:34.052Z,99.99
2018-02-27T06:59:34.656Z,99.99
2018-02-27T07:00:35.244Z,99.99
2018-02-27T07:01:35.840Z,99.99
2018-02-27T07:02:36.429Z,99.99
2018-02-27T07:03:37.024Z,99.99
2018-02-27T07:04:37.681Z,99.99
2018-02-27T07:05:38.278Z,99.99
2018-02-27T07:06:38.884Z,99.99
2018-02-27T07:07:39.474Z,99.99
2018-02-27T07:08:40.068Z,99.99
2018-02-27T07:09:40.662Z,99.99
2018-02-27T07:10:41.257Z,99.99
2018-02-27T07:11:41.845Z,99.99
2018-02-27T07:12:42.440Z,99.99
2018-02-27T07:13:43.035Z,99.99
2018-02-27T07:14:43.652Z,99.99
2018-02-27T07:15:44.253Z,99.99
2018-02-27T07:16:44.859Z,99.99
2018-02-27T07:17:45.446Z,99.99
2018-02-27T07:18:46.102Z,99.99
2018-02-27T07:19:46.652Z,99.99
2018-02-27T07:20:47.257Z,99.99
2018-02-27T07:21:47.850Z,99.99
2018-02-27T07:22:48.460Z,99.99
2018-02-27T07:23:49.065Z,99.99
2018-02-27T07:24:49.666Z,99.99
2018-02-27T07:25:50.273Z,99.99
2018-02-27T07:26:50.871Z,99.99
2018-02-27T07:27:51.465Z,99.99
2018-02-27T07:28:52.068Z,99.99
2018-02-27T07:29:52.677Z,99.99
2018-02-27T07:30:53.291Z,99.08
2018-02-27T07:31:53.903Z,98.47
2018-02-27T07:32:54.521Z,96.11
2018-02-27T07:33:55.114Z,92.90
2018-02-27T07:34:55.710Z,91.58
2018-02-27T07:35:56.310Z,88.93
2018-02-27T07:36:56.903Z,89.22
2018-02-27T07:37:57.510Z,87.71
2018-02-27T07:38:58.107Z,87.14
2018-02-27T07:39:58.711Z,85.20
2018-02-27T07:40:59.324Z,83.27
2018-02-27T07:41:59.930Z,83.27
2018-02-27T07:43:00.534Z,82.61
2018-02-27T07:44:01.137Z,81.76
2018-02-27T07:45:01.750Z,82.14
2018-02-27T07:46:02.354Z,82.23
2018-02-27T07:47:02.958Z,82.04
2018-02-27T07:48:03.573Z,81.76
2018-02-27T07:49:04.184Z,81.76
2018-02-27T07:50:04.783Z,81.76
2018-02-27T07:51:05.384Z,82.04
2018-02-27T07:52:06.002Z,82.70
2018-02-27T07:53:06.610Z,81.90
2018-02-27T07:54:07.215Z,81.71
2018-02-27T07:55:07.835Z,80.66
2018-02-27T07:56:08.455Z,80.19
2018-02-27T07:57:09.063Z,79.91
2018-02-27T07:58:09.663Z,79.11
2018-02-27T07:59:10.268Z,79.16
2018-02-27T08:00:10.869Z,79.44
2018-02-27T08:01:11.484Z,79.82
2018-02-27T08:02:12.101Z,79.82
2018-02-27T08:03:12.710Z,78.21
2018-02-27T08:04:13.410Z,77.93
2018-02-27T08:05:13.918Z,77.45
2018-02-27T08:06:14.517Z,77.45
2018-02-27T08:07:15.116Z,77.64
2018-02-27T08:08:15.724Z,77.89
2018-02-27T08:09:16.339Z,78.50
2018-02-27T08:10:16.955Z,78.27
2018-02-27T08:11:17.570Z,78.40
2018-02-27T08:12:18.196Z,78.21
2018-02-27T08:13:18.801Z,77.70
2018-02-27T08:14:19.967Z,77.89
2018-02-27T08:15:20.580Z,77.70
2018-02-27T08:16:21.200Z,78.45
2018-02-27T08:17:21.821Z,78.78
2018-02-27T08:18:22.446Z,78.31
2018-02-27T08:19:23.064Z,77.45
2018-02-27T08:20:23.685Z,76.51
2018-02-27T08:21:24.298Z,76.04
2018-02-27T08:22:24.912Z,75.70
2018-02-27T08:23:25.524Z,75.98
2018-02-27T08:24:26.131Z,75.23
2018-02-27T08:25:26.744Z,74.09
2018-02-27T08:26:27.346Z,73.71
2018-02-27T08:27:27.954Z,73.52
2018-02-27T08:28:28.565Z,72.86
2018-02-27T08:29:29.174Z,72.36
2018-02-27T08:30:29.786Z,72.86
2018-02-27T08:31:30.409Z,73.62
2018-02-27T08:32:31.032Z,73.14
2018-02-27T08:33:31.646Z,72.73
2018-02-27T08:34:32.260Z,72.92
2018-02-27T08:35:32.865Z,73.58
2018-02-27T08:36:33.464Z,73.77
2018-02-27T08:37:34.060Z,73.77
2018-02-27T08:38:34.657Z,73.77
2018-02-27T08:39:35.270Z,73.68
2018-02-27T08:40:35.874Z,73.77
2018-02-27T08:41:36.471Z,73.74
2018-02-27T08:42:37.088Z,74.11
2018-02-27T08:43:37.696Z,74.40
2018-02-27T08:44:38.302Z,74.87
2018-02-27T08:45:38.907Z,75.62
2018-02-27T08:46:39.523Z,75.43
2018-02-27T08:47:40.116Z,75.34
2018-02-27T08:48:40.712Z,75.34
2018-02-27T08:49:41.325Z,75.34
2018-02-27T08:50:41.926Z,75.30
2018-02-27T08:51:42.536Z,75.59
2018-02-27T08:52:43.140Z,75.49
2018-02-27T08:53:43.749Z,76.43
2018-02-27T08:54:44.363Z,76.15
2018-02-27T08:55:44.976Z,76.15
2018-02-27T08:56:45.573Z,76.90
2018-02-27T08:57:46.176Z,77.19
2018-02-27T08:58:46.778Z,76.90
2018-02-27T08:59:47.380Z,76.72
2018-02-27T09:00:47.989Z,77.00
2018-02-27T09:01:48.622Z,76.72
2018-02-27T09:02:49.186Z,77.00
2018-02-27T09:03:49.795Z,76.81
2018-02-27T09:04:50.389Z,77.66
2018-02-27T09:05:51.005Z,77.28
2018-02-27T09:06:51.611Z,76.62
2018-02-27T09:07:52.233Z,76.15
2018-02-27T09:08:52.815Z,76.57
2018-02-27T09:09:53.420Z,75.81
2018-02-27T09:10:54.030Z,74.96
2018-02-27T09:11:54.696Z,74.55
2018-02-27T09:12:55.308Z,74.36
2018-02-27T09:13:55.918Z,74.30
2018-02-27T09:14:56.514Z,73.93
2018-02-27T09:15:57.126Z,73.41
2018-02-27T09:16:57.735Z,73.51
2018-02-27T09:17:58.346Z,73.13
2018-02-27T09:18:58.953Z,73.07
2018-02-27T09:19:59.567Z,72.41
2018-02-27T09:21:00.177Z,72.32
2018-02-27T09:22:00.772Z,72.60
2018-02-27T09:23:01.370Z,72.88
2018-02-27T09:24:01.969Z,72.60
2018-02-27T09:25:02.579Z,72.60
2018-02-27T09:26:03.189Z,71.66
2018-02-27T09:27:03.804Z,71.12
2018-02-27T09:28:04.403Z,69.86
2018-02-27T09:29:05.018Z,69.43
2018-02-27T09:30:05.625Z,69.62
2018-02-27T09:31:06.219Z,69.14
2018-02-27T09:32:06.836Z,68.95
2018-02-27T09:33:07.435Z,68.48
2018-02-27T09:34:08.045Z,68.29
2018-02-27T09:35:08.653Z,67.16
2018-02-27T09:36:09.273Z,66.50
2018-02-27T09:37:09.894Z,66.12
2018-02-27T09:38:10.490Z,66.12
2018-02-27T09:39:11.104Z,65.59
2018-02-27T09:40:11.720Z,65.11
2018-02-27T09:41:12.343Z,64.83
2018-02-27T09:42:12.957Z,65.11
2018-02-27T09:43:13.575Z,65.02
2018-02-27T09:44:14.190Z,65.02
2018-02-27T09:45:14.795Z,64.83
2018-02-27T09:46:15.408Z,64.48
2018-02-27T09:47:16.016Z,64.20
2018-02-27T09:48:16.635Z,62.69
2018-02-27T09:49:17.299Z,62.50
2018-02-27T09:50:17.907Z,62.56
2018-02-27T09:51:18.517Z,62.28
2018-02-27T09:52:19.116Z,62.09
2018-02-27T09:53:19.731Z,62.56
2018-02-27T09:54:20.355Z,61.99
2018-02-27T09:55:20.962Z,61.93
2018-02-27T09:56:21.582Z,61.46
2018-02-27T09:57:22.186Z,61.36
2018-02-27T09:58:22.796Z,61.36
2018-02-27T09:59:23.400Z,60.70
2018-02-27T10:00:24.014Z,60.61
2018-02-27T10:01:24.614Z,60.23
2018-02-27T10:02:25.228Z,59.95
2018-02-27T10:03:25.857Z,59.85
2018-02-27T10:04:26.465Z,59.38
2018-02-27T10:05:27.079Z,59.57
2018-02-27T10:06:27.691Z,60.14
2018-02-27T10:07:28.306Z,60.23
2018-02-27T10:08:28.924Z,59.50
2018-02-27T10:09:29.539Z,59.79
2018-02-27T10:10:30.139Z,59.69
2018-02-27T10:11:30.740Z,59.22
2018-02-27T10:12:31.353Z,57.80
2018-02-27T10:13:31.969Z,57.80
2018-02-27T10:14:32.583Z,57.61
2018-02-27T10:15:33.186Z,57.71
2018-02-27T10:16:33.798Z,57.83
2018-02-27T10:17:34.404Z,57.45
2018-02-27T10:18:35.010Z,57.14
2018-02-27T10:19:35.626Z,57.14
2018-02-27T10:20:36.233Z,56.76
2018-02-27T10:21:36.834Z,56.29
2018-02-27T10:22:37.443Z,56.67
2018-02-27T10:23:38.060Z,56.73
2018-02-27T10:24:38.675Z,57.52
2018-02-27T10:25:39.290Z,57.04
2018-02-27T10:26:39.891Z,56.82
2018-02-27T10:27:40.492Z,56.63
2018-02-27T10:28:41.114Z,56.26
2018-02-27T10:29:41.735Z,55.98
2018-02-27T10:30:42.421Z,56.54
2018-02-27T10:31:42.954Z,55.88
2018-02-27T10:32:43.562Z,55.79
2018-02-27T10:33:44.165Z,56.35
2018-02-27T10:34:44.808Z,57.11
2018-02-27T10:35:45.395Z,57.42
2018-02-27T10:36:46.004Z,56.95
2018-02-27T10:37:46.616Z,57.01
2018-02-27T10:38:47.222Z,56.45
2018-02-27T10:39:47.822Z,56.35
2018-02-27T10:40:48.430Z,56.73
2018-02-27T10:41:49.038Z,56.63
2018-02-27T10:42:49.652Z,56.92
2018-02-27T10:43:50.260Z,56.73
2018-02-27T10:44:50.874Z,57.23
2018-02-27T10:45:51.492Z,56.57
2018-02-27T10:46:52.102Z,56.10
2018-02-27T10:47:52.706Z,55.63
2018-02-27T10:48:53.306Z,54.77
2018-02-27T10:49:53.933Z,54.87
2018-02-27T10:50:54.523Z,54.96
2018-02-27T10:51:55.126Z,54.87
2018-02-27T10:52:55.750Z,54.96
2018-02-27T10:53:56.363Z,54.58
2018-02-27T10:54:57.027Z,55.15
2018-02-27T10:55:57.582Z,54.80
2018-02-27T10:56:58.188Z,54.39
2018-02-27T10:57:58.801Z,54.49
2018-02-27T10:58:59.411Z,54.30
2018-02-27T11:00:01.974Z,54.68
2018-02-27T11:01:02.579Z,54.11
2018-02-27T11:02:03.206Z,54.02
2018-02-27T11:03:03.798Z,54.02
2018-02-27T11:04:04.397Z,53.83
2018-02-27T11:06:25.508Z,54.68
2018-02-27T11:07:26.126Z,54.39
2018-02-27T11:09:44.972Z,53.45
2018-02-27T11:10:45.584Z,53.36
2018-02-27T11:11:46.186Z,53.55
2018-02-27T11:12:46.793Z,53.26
2018-02-27T11:13:47.416Z,53.55
2018-02-27T11:14:48.078Z,52.98
2018-02-27T11:15:48.685Z,52.62
2018-02-27T11:16:49.302Z,52.34
2018-02-27T11:17:49.921Z,51.75
2018-02-27T11:18:50.523Z,51.28
2018-02-27T11:19:51.170Z,51.28
2018-02-27T11:20:51.742Z,51.93
2018-02-27T11:21:52.348Z,51.65
2018-02-27T11:22:52.942Z,51.77
2018-02-27T11:23:53.548Z,52.15
2018-02-27T11:24:54.162Z,52.15
2018-02-27T11:25:54.769Z,52.53
2018-02-27T11:26:55.373Z,52.91
2018-02-27T11:27:55.980Z,52.60
2018-02-27T11:28:56.594Z,52.22
2018-02-27T11:29:57.256Z,52.22
2018-02-27T11:30:57.872Z,52.44
2018-02-27T11:31:58.481Z,52.50
2018-02-27T11:32:59.095Z,52.41
2018-02-27T11:33:59.704Z,51.87
2018-02-27T11:35:00.374Z,51.93
2018-02-27T11:36:00.993Z,52.34
2018-02-27T11:37:01.605Z,52.15
2018-02-27T11:38:02.227Z,51.58
2018-02-27T11:39:02.840Z,50.82
2018-02-27T11:40:03.450Z,50.61
2018-02-27T11:41:04.060Z,50.80
2018-02-27T11:42:04.657Z,50.99
2018-02-27T11:43:05.260Z,51.09
2018-02-27T11:44:05.878Z,51.09
2018-02-27T11:45:06.486Z,51.75
2018-02-27T11:46:07.311Z,52.22
2018-02-27T11:47:07.922Z,52.44
2018-02-27T11:48:08.521Z,52.25
2018-02-27T11:49:09.127Z,51.30
2018-02-27T11:50:09.730Z,51.01
2018-02-27T11:51:10.350Z,50.73
2018-02-27T11:52:10.945Z,50.63
2018-02-27T11:53:11.559Z,50.54
2018-02-27T11:54:12.179Z,50.35
2018-02-27T11:55:12.799Z,50.16
2018-02-27T11:56:13.412Z,50.45
2018-02-27T11:57:14.019Z,50.35
2018-02-27T11:58:14.627Z,50.63
2018-02-27T11:59:15.230Z,50.73
2018-02-27T12:00:15.851Z,50.73
2018-02-27T12:01:16.465Z,50.35
2018-02-27T12:02:17.123Z,49.88
2018-02-27T12:03:17.687Z,49.48
2018-02-27T12:04:18.284Z,49.76
2018-02-27T12:05:18.882Z,49.95
2018-02-27T12:06:19.495Z,50.04
2018-02-27T12:07:20.107Z,49.76
2018-02-27T12:08:20.725Z,50.14
2018-02-27T12:09:21.333Z,50.33
2018-02-27T12:10:21.936Z,51.18
2018-02-27T12:11:22.538Z,51.58
2018-02-27T12:12:23.130Z,51.39
2018-02-27T12:13:23.738Z,51.20
2018-02-27T12:14:24.344Z,50.28
2018-02-27T12:15:24.944Z,49.31
2018-02-27T12:16:25.551Z,49.03
2018-02-27T12:17:26.156Z,49.22
2018-02-27T12:18:26.780Z,49.22
2018-02-27T12:19:27.384Z,49.12
2018-02-27T12:20:28.008Z,48.93
2018-02-27T12:21:28.616Z,48.84
2018-02-27T12:22:29.213Z,48.82
2018-02-27T12:23:29.819Z,49.12
2018-02-27T12:24:30.426Z,49.12
2018-02-27T12:25:31.040Z,49.43
2018-02-27T12:26:31.654Z,49.62
2018-02-27T12:27:32.270Z,48.68
2018-02-27T12:28:32.891Z,48.58
2018-02-27T12:29:33.503Z,48.29
2018-02-27T12:30:34.105Z,47.94
2018-02-27T12:31:34.720Z,47.85
2018-02-27T12:32:35.335Z,47.85
2018-02-27T12:33:35.949Z,47.09
2018-02-27T12:34:36.570Z,46.92
2018-02-27T12:35:37.199Z,47.09
2018-02-27T12:36:37.775Z,46.90
2018-02-27T12:37:38.389Z,46.52
2018-02-27T12:38:39.009Z,46.99
2018-02-27T12:39:39.607Z,46.80
2018-02-27T12:40:40.216Z,47.25
2018-02-27T12:41:40.822Z,47.44
2018-02-27T12:42:41.437Z,47.06
2018-02-27T12:43:42.034Z,46.97
2018-02-27T12:44:42.646Z,46.97
2018-02-27T12:45:43.262Z,46.69
2018-02-27T12:46:43.882Z,47.28
2018-02-27T12:47:44.500Z,47.94
2018-02-27T12:48:45.105Z,47.28
2018-02-27T12:49:45.703Z,47.44
2018-02-27T12:50:46.303Z,46.78
2018-02-27T12:51:46.906Z,46.78
2018-02-27T12:52:47.524Z,46.97
2018-02-27T12:53:48.135Z,46.97
2018-02-27T12:54:48.739Z,47.72
2018-02-27T12:55:49.340Z,47.72
2018-02-27T12:56:49.950Z,46.97
2018-02-27T12:57:50.547Z,47.82
2018-02-27T12:58:51.162Z,47.61
2018-02-27T12:59:51.785Z,47.80
2018-02-27T13:00:52.387Z,47.80
2018-02-27T13:01:53.002Z,47.99
2018-02-27T13:02:53.615Z,48.36
2018-02-27T13:03:54.224Z,48.27